Time;durP1;ratioP1;P1;durP2;ratioP2;P2;SDS_P1;SDS_P2;PMS_P1;PMS_P2;Temp;Humidity;BMP_temperature;BMP_pressure;BME280_temperature;BME280_humidity;BME280_pressure;Samples;Min_cycle;Max_cycle;Signal;HPM_P1;HPM_P2
2021/06/08 00:00:09;;;;;;;35.50;31.93;;;17.00;99.90;;;;;;5100829;28;20458;-43
2021/06/08 00:02:35;;;;;;;35.67;32.27;;;17.00;99.90;;;;;;5119148;28;20175;-43
2021/06/08 00:05:00;;;;;;;35.43;32.00;;;17.00;99.90;;;;;;5119111;28;20401;-43
2021/06/08 00:07:26;;;;;;;34.70;31.23;;;17.00;99.90;;;;;;5119167;28;20188;-43
2021/06/08 00:09:51;;;;;;;35.37;31.67;;;17.10;99.90;;;;;;5118546;28;20521;-43
2021/06/08 00:12:17;;;;;;;36.50;32.40;;;17.10;99.90;;;;;;5118728;28;20281;-43
2021/06/08 00:14:42;;;;;;;38.50;34.43;;;17.10;99.90;;;;;;5119202;28;20179;-41
2021/06/08 00:17:08;;;;;;;36.27;32.57;;;17.10;99.90;;;;;;5118556;28;20247;-43
2021/06/08 00:19:34;;;;;;;33.73;30.33;;;17.10;99.90;;;;;;5118393;28;20175;-43
2021/06/08 00:21:59;;;;;;;36.53;32.93;;;17.10;99.90;;;;;;5118200;28;20175;-43
2021/06/08 00:24:25;;;;;;;34.20;31.00;;;17.10;99.90;;;;;;5118309;28;20435;-43
2021/06/08 00:26:51;;;;;;;33.07;29.97;;;17.10;99.90;;;;;;5118058;28;20483;-43
2021/06/08 00:29:16;;;;;;;34.37;31.07;;;17.10;99.90;;;;;;5118495;28;20414;-42
2021/06/08 00:31:42;;;;;;;34.07;30.67;;;17.10;99.90;;;;;;5099816;28;20255;-43
2021/06/08 00:34:07;;;;;;;36.40;32.60;;;17.10;99.90;;;;;;5117992;28;20551;-42
2021/06/08 00:36:33;;;;;;;30.00;27.00;;;17.20;99.90;;;;;;5116492;28;20203;-43
2021/06/08 00:38:59;;;;;;;22.10;20.00;;;17.20;99.90;;;;;;5102953;28;20175;-43
2021/06/08 00:41:39;;;;;;;22.00;19.73;;;16.90;99.90;;;;;;5118280;28;20179;-43
2021/06/08 00:44:07;;;;;;;22.70;20.50;;;16.80;99.90;;;;;;5118297;28;20175;-43
2021/06/08 00:46:33;;;;;;;18.83;16.93;;;16.80;99.90;;;;;;5118283;28;20449;-43
2021/06/08 00:48:59;;;;;;;17.73;16.03;;;16.80;99.90;;;;;;5117736;28;20474;-43
2021/06/08 00:51:25;;;;;;;16.63;15.03;;;16.80;99.90;;;;;;5118167;28;20264;-43
2021/06/08 00:53:52;;;;;;;14.33;13.03;;;16.70;99.90;;;;;;5118812;28;20440;-42
2021/06/08 00:56:18;;;;;;;15.23;12.10;;;16.70;99.90;;;;;;5118756;28;20199;-43
2021/06/08 00:58:47;;;;;;;13.73;12.40;;;16.70;99.90;;;;;;5083846;28;20433;-43
2021/06/08 01:01:13;;;;;;;12.57;11.47;;;16.60;99.90;;;;;;5117642;28;20178;-42
2021/06/08 01:03:38;;;;;;;13.30;12.00;;;16.60;99.90;;;;;;5118052;28;20564;-43
2021/06/08 01:06:04;;;;;;;12.90;11.73;;;16.60;99.90;;;;;;5118891;28;20412;-43
2021/06/08 01:08:30;;;;;;;11.50;10.60;;;16.60;99.90;;;;;;5118455;28;20550;-43
2021/06/08 01:10:55;;;;;;;12.03;11.03;;;16.60;99.90;;;;;;5118940;28;20511;-44
2021/06/08 01:13:21;;;;;;;11.90;10.80;;;16.60;99.90;;;;;;5118592;28;20183;-43
2021/06/08 01:15:50;;;;;;;11.53;10.53;;;16.60;99.90;;;;;;5118606;28;20231;-42
2021/06/08 01:18:16;;;;;;;11.43;10.40;;;16.70;99.90;;;;;;5099455;28;20436;-43
2021/06/08 01:20:42;;;;;;;14.50;10.97;;;16.70;99.90;;;;;;5116932;28;20406;-43
2021/06/08 01:23:08;;;;;;;11.63;10.63;;;16.60;99.90;;;;;;5117240;28;20277;-43
2021/06/08 01:25:33;;;;;;;12.50;11.43;;;16.60;99.90;;;;;;5098475;28;20472;-42
2021/06/08 01:27:59;;;;;;;12.10;11.10;;;16.60;99.90;;;;;;5116866;28;20184;-43
2021/06/08 01:30:26;;;;;;;13.10;11.90;;;16.60;99.90;;;;;;5116568;28;20674;-43
2021/06/08 01:36:15;;;;;;;18.07;16.00;;;16.70;99.90;;;;;;5117808;28;20464;-43
2021/06/08 01:38:42;;;;;;;14.57;13.17;;;16.60;99.90;;;;;;5100683;28;20700;-43
2021/06/08 01:41:10;;;;;;;15.87;14.37;;;16.50;99.90;;;;;;5117873;28;20457;-43
2021/06/08 01:43:36;;;;;;;23.17;20.87;;;16.50;99.90;;;;;;5118072;28;20842;-43
2021/06/08 01:46:01;;;;;;;22.70;20.50;;;16.40;99.90;;;;;;5118100;28;20417;-43
2021/06/08 01:48:27;;;;;;;25.80;23.17;;;16.30;99.90;;;;;;5118149;28;20446;-43
2021/06/08 01:50:57;;;;;;;23.70;21.20;;;16.30;99.90;;;;;;5118472;28;20216;-43
2021/06/08 01:53:35;;;;;;;27.83;25.03;;;16.30;99.90;;;;;;5099598;28;20187;-43
2021/06/08 01:56:07;;;;;;;28.03;25.23;;;16.30;99.90;;;;;;5118050;28;20551;-43
2021/06/08 01:58:45;;;;;;;28.60;25.80;;;16.40;99.90;;;;;;5100041;28;20519;-43
2021/06/08 02:01:43;;;;;;;30.30;27.17;;;16.30;99.90;;;;;;5100665;28;20788;-42
2021/06/08 02:04:26;;;;;;;28.47;25.80;;;16.40;99.90;;;;;;5114134;28;20875;-43
2021/06/08 02:07:06;;;;;;;27.90;25.07;;;16.40;99.90;;;;;;5100709;28;20544;-43
2021/06/08 02:09:59;;;;;;;34.13;30.50;;;16.50;99.90;;;;;;5117895;28;20707;-43
2021/06/08 02:12:25;;;;;;;29.03;26.13;;;16.50;99.90;;;;;;5100134;28;20532;-43
2021/06/08 02:15:07;;;;;;;35.80;30.57;;;16.50;99.90;;;;;;5118223;28;20511;-43
2021/06/08 02:17:45;;;;;;;35.50;31.80;;;16.50;99.90;;;;;;5117963;28;20526;-43
2021/06/08 02:20:21;;;;;;;36.00;32.10;;;16.50;99.90;;;;;;5100297;28;20676;-43
2021/06/08 02:22:58;;;;;;;39.60;35.30;;;16.60;99.90;;;;;;5100105;28;20541;-43
2021/06/08 02:25:26;;;;;;;36.07;32.27;;;16.60;99.90;;;;;;5117854;28;20702;-43
2021/06/08 02:27:54;;;;;;;37.97;33.93;;;16.60;99.90;;;;;;5099636;28;20464;-43
2021/06/08 02:30:20;;;;;;;39.40;35.40;;;16.70;99.90;;;;;;5099541;28;20520;-42
2021/06/08 02:32:47;;;;;;;38.30;34.27;;;16.70;99.90;;;;;;5100232;28;20436;-43
2021/06/08 02:35:13;;;;;;;38.70;34.60;;;16.70;99.90;;;;;;5099796;28;20858;-42
2021/06/08 02:37:40;;;;;;;31.00;27.90;;;16.70;99.90;;;;;;5099784;28;20685;-43
2021/06/08 02:40:06;;;;;;;26.67;24.13;;;16.60;99.90;;;;;;5099703;28;20417;-43
2021/06/08 02:42:32;;;;;;;28.77;25.87;;;16.50;99.90;;;;;;5117851;28;20698;-43
2021/06/08 02:44:59;;;;;;;32.97;29.67;;;16.40;99.90;;;;;;5099571;28;20405;-42
2021/06/08 02:47:24;;;;;;;32.33;28.90;;;16.40;99.90;;;;;;5099775;28;20753;-43
2021/06/08 02:49:50;;;;;;;29.43;26.33;;;16.30;99.90;;;;;;5099649;28;20401;-43
2021/06/08 02:52:18;;;;;;;26.47;23.73;;;16.30;99.90;;;;;;5099665;28;20190;-43
2021/06/08 02:54:45;;;;;;;27.13;24.33;;;16.20;99.90;;;;;;5099366;28;20508;-42
2021/06/08 02:57:11;;;;;;;27.30;24.50;;;16.20;99.90;;;;;;5099468;28;20720;-43
2021/06/08 02:59:38;;;;;;;24.67;22.03;;;16.20;99.90;;;;;;5099569;28;20414;-42
2021/06/08 03:02:08;;;;;;;24.43;21.33;;;16.20;99.90;;;;;;5099828;28;20425;-43
2021/06/08 03:04:45;;;;;;;25.93;22.80;;;16.20;99.90;;;;;;5101683;28;20555;-43
2021/06/08 03:07:32;;;;;;;22.83;20.40;;;16.20;99.90;;;;;;5102959;28;20479;-42
2021/06/08 03:10:01;;;;;;;22.67;20.27;;;16.20;99.90;;;;;;5078320;28;20408;-43
2021/06/08 03:12:32;;;;;;;24.63;22.13;;;16.30;99.90;;;;;;5078796;28;20427;-43
2021/06/08 03:14:58;;;;;;;26.93;24.27;;;16.30;99.90;;;;;;5078222;28;20418;-42
2021/06/08 03:17:26;;;;;;;27.03;24.43;;;16.40;99.90;;;;;;5078595;28;20829;-43
2021/06/08 03:19:53;;;;;;;29.73;26.80;;;16.50;99.90;;;;;;5078271;28;20411;-43
2021/06/08 03:22:20;;;;;;;27.23;24.53;;;16.50;99.90;;;;;;5078369;28;20733;-43
2021/06/08 03:24:49;;;;;;;32.03;28.53;;;16.60;99.90;;;;;;5061029;28;20415;-43
2021/06/08 03:27:15;;;;;;;35.87;30.53;;;16.60;99.90;;;;;;5078151;28;20817;-42
2021/06/08 03:29:41;;;;;;;36.03;32.33;;;16.70;99.90;;;;;;5078207;28;20423;-43
2021/06/08 03:32:07;;;;;;;33.47;29.87;;;16.70;99.90;;;;;;5078720;28;20435;-43
2021/06/08 03:34:34;;;;;;;32.90;29.50;;;16.70;99.90;;;;;;5077006;28;20428;-43
2021/06/08 03:37:01;;;;;;;31.50;28.40;;;16.70;99.90;;;;;;5073660;28;20524;-43
2021/06/08 03:39:27;;;;;;;33.10;29.37;;;16.80;99.90;;;;;;5073127;28;20423;-43
2021/06/08 03:41:53;;;;;;;33.07;28.03;;;16.80;99.90;;;;;;5096365;28;20850;-43
2021/06/08 03:44:20;;;;;;;33.77;30.27;;;16.80;99.90;;;;;;5115902;28;20416;-43
2021/06/08 03:46:50;;;;;;;29.93;26.53;;;16.80;99.90;;;;;;5097470;28;20930;-43
2021/06/08 03:49:18;;;;;;;34.23;28.90;;;16.90;99.90;;;;;;5117428;28;20421;-43
2021/06/08 03:51:44;;;;;;;33.73;28.70;;;16.90;99.90;;;;;;5118602;28;20417;-43
2021/06/08 03:54:11;;;;;;;35.60;31.10;;;16.90;99.90;;;;;;5102366;28;20852;-42
2021/06/08 03:56:39;;;;;;;34.27;30.60;;;17.00;99.90;;;;;;5119745;28;20453;-43
2021/06/08 03:59:06;;;;;;;35.77;31.83;;;16.90;99.90;;;;;;5102302;28;20439;-43
2021/06/08 04:01:32;;;;;;;36.17;32.33;;;17.00;99.90;;;;;;5118701;28;20425;-44
2021/06/08 04:03:58;;;;;;;34.70;30.30;;;17.00;99.90;;;;;;5091549;28;20442;-42
2021/06/08 04:06:24;;;;;;;44.40;36.20;;;17.00;99.90;;;;;;5116013;28;20513;-43
2021/06/08 04:08:49;;;;;;;37.50;31.80;;;17.00;99.90;;;;;;5119920;28;20192;-43
2021/06/08 04:11:19;;;;;;;34.70;30.73;;;17.00;99.90;;;;;;5120674;28;20175;-43
2021/06/08 04:13:45;;;;;;;35.47;30.13;;;17.00;99.90;;;;;;5102749;28;20176;-45
2021/06/08 04:16:11;;;;;;;37.07;32.00;;;17.00;99.90;;;;;;5100631;28;20538;-44
2021/06/08 04:18:38;;;;;;;33.63;30.03;;;17.00;99.90;;;;;;5118754;28;20433;-44
2021/06/08 04:21:04;;;;;;;44.03;36.93;;;17.10;99.90;;;;;;5118277;28;20414;-44
2021/06/08 04:23:30;;;;;;;47.43;37.57;;;17.00;99.90;;;;;;5119415;28;20421;-44
2021/06/08 04:25:56;;;;;;;40.23;34.50;;;16.90;99.90;;;;;;5119607;28;20180;-44
2021/06/08 04:28:23;;;;;;;48.07;37.37;;;16.90;99.90;;;;;;5119086;28;20179;-44
2021/06/08 04:30:50;;;;;;;42.47;35.37;;;16.90;99.90;;;;;;5119139;28;20513;-44
2021/06/08 04:33:27;;;;;;;47.20;39.93;;;16.90;99.90;;;;;;5101443;28;20448;-44
2021/06/08 04:35:52;;;;;;;44.33;37.07;;;16.90;99.90;;;;;;5101203;28;20456;-44
2021/06/08 04:38:19;;;;;;;49.50;38.87;;;16.90;99.90;;;;;;5119022;28;20436;-44
2021/06/08 04:40:47;;;;;;;53.47;42.53;;;16.90;99.90;;;;;;5118873;28;20569;-44
2021/06/08 04:43:13;;;;;;;44.80;36.07;;;16.90;99.90;;;;;;5100789;28;20645;-44
2021/06/08 04:45:39;;;;;;;44.83;36.83;;;16.80;99.90;;;;;;5118420;28;20426;-42
2021/06/08 04:48:05;;;;;;;44.13;38.40;;;16.90;99.90;;;;;;5118079;28;20449;-44
2021/06/08 04:50:31;;;;;;;46.83;40.10;;;16.90;99.90;;;;;;5118787;28;20186;-43
2021/06/08 04:52:57;;;;;;;43.23;35.57;;;16.90;99.90;;;;;;5116685;28;20431;-44
2021/06/08 04:55:25;;;;;;;46.00;37.50;;;17.00;99.90;;;;;;5117675;28;20285;-44
2021/06/08 04:57:53;;;;;;;44.70;38.40;;;17.00;99.90;;;;;;5118155;28;21046;-43
2021/06/08 05:00:20;;;;;;;46.00;39.17;;;17.00;99.90;;;;;;5079837;28;20674;-43
2021/06/08 05:03:05;;;;;;;53.27;41.67;;;17.00;99.90;;;;;;5095874;28;20435;-43
2021/06/08 05:05:32;;;;;;;45.00;37.57;;;17.00;99.90;;;;;;5100369;28;20423;-43
2021/06/08 05:08:23;;;;;;;45.90;37.50;;;16.90;99.90;;;;;;5098252;28;20439;-43
2021/06/08 05:10:55;;;;;;;42.87;36.13;;;16.90;99.90;;;;;;5097471;28;20834;-44
2021/06/08 05:13:21;;;;;;;49.80;38.07;;;17.00;99.90;;;;;;5081948;28;20750;-43
2021/06/08 05:15:50;;;;;;;51.23;40.77;;;17.00;99.90;;;;;;5098933;28;20512;-44
2021/06/08 05:18:16;;;;;;;52.03;41.07;;;17.00;99.90;;;;;;5099547;28;20472;-43
2021/06/08 05:20:44;;;;;;;48.83;40.13;;;17.00;99.90;;;;;;5099101;28;20429;-42
2021/06/08 05:23:10;;;;;;;42.70;37.37;;;17.00;99.90;;;;;;5096172;28;20456;-43
2021/06/08 05:25:37;;;;;;;47.07;40.47;;;17.00;99.90;;;;;;5096723;28;20725;-44
2021/06/08 05:28:04;;;;;;;45.33;38.17;;;17.10;99.90;;;;;;5096192;28;20433;-44
2021/06/08 05:30:30;;;;;;;46.33;38.70;;;17.10;99.90;;;;;;5098260;28;20402;-43
2021/06/08 05:32:55;;;;;;;47.87;40.13;;;17.10;99.90;;;;;;5116547;28;20479;-43
2021/06/08 05:35:29;;;;;;;51.13;41.30;;;17.10;99.90;;;;;;5115985;28;20493;-44
2021/06/08 05:38:07;;;;;;;52.27;42.20;;;17.10;99.90;;;;;;5116946;28;20183;-44
2021/06/08 05:40:37;;;;;;;52.00;43.13;;;17.10;99.90;;;;;;5117631;28;20448;-43
2021/06/08 05:43:03;;;;;;;45.50;38.20;;;17.10;99.90;;;;;;5116320;28;20429;-43
2021/06/08 05:45:32;;;;;;;47.53;39.90;;;17.10;99.90;;;;;;5116169;28;20686;-44
2021/06/08 05:47:58;;;;;;;47.13;38.60;;;17.20;99.90;;;;;;5115706;28;20850;-44
2021/06/08 05:50:24;;;;;;;49.00;38.17;;;17.30;99.90;;;;;;5114159;28;20406;-43
2021/06/08 05:52:53;;;;;;;46.77;40.90;;;17.30;99.90;;;;;;5096344;28;20866;-44
2021/06/08 05:55:23;;;;;;;43.87;39.07;;;17.30;99.90;;;;;;5097501;28;20195;-43
2021/06/08 05:57:53;;;;;;;42.80;36.83;;;17.40;99.90;;;;;;5096660;28;20461;-43
2021/06/08 06:00:20;;;;;;;44.17;38.77;;;17.40;99.90;;;;;;5097734;28;20416;-44
2021/06/08 06:02:46;;;;;;;42.67;37.97;;;17.40;99.90;;;;;;5116822;28;20456;-43
2021/06/08 06:05:12;;;;;;;42.73;36.47;;;17.50;99.90;;;;;;5116141;28;20730;-43
2021/06/08 06:07:39;;;;;;;43.27;38.63;;;17.50;99.90;;;;;;5116934;28;20493;-41
2021/06/08 06:10:06;;;;;;;39.63;35.47;;;17.50;99.90;;;;;;5117072;28;20427;-43
2021/06/08 06:12:33;;;;;;;38.23;34.20;;;17.50;99.90;;;;;;5116882;28;20430;-43
2021/06/08 06:15:04;;;;;;;39.23;35.43;;;17.50;99.90;;;;;;5098370;28;20414;-43
2021/06/08 06:17:38;;;;;;;35.50;31.90;;;17.50;99.90;;;;;;5099429;28;20733;-43
2021/06/08 06:20:10;;;;;;;37.60;33.63;;;17.60;99.90;;;;;;5116522;28;20574;-43
2021/06/08 06:22:36;;;;;;;37.00;33.13;;;17.60;99.90;;;;;;5116338;28;20776;-43
2021/06/08 06:25:05;;;;;;;38.00;33.90;;;17.70;99.90;;;;;;5097926;28;20409;-43
2021/06/08 06:27:34;;;;;;;36.70;32.90;;;17.80;99.90;;;;;;5115900;28;20428;-43
2021/06/08 06:30:00;;;;;;;33.87;30.27;;;17.80;99.90;;;;;;5098388;28;20409;-43
2021/06/08 06:32:26;;;;;;;35.70;31.93;;;17.80;99.90;;;;;;5116522;28;20722;-42
2021/06/08 06:34:51;;;;;;;34.00;30.60;;;17.80;99.90;;;;;;5116208;28;20492;-43
2021/06/08 06:37:20;;;;;;;33.67;30.30;;;17.80;99.90;;;;;;5117181;28;20248;-43
2021/06/08 06:39:46;;;;;;;34.90;31.50;;;17.90;99.90;;;;;;5099419;28;20176;-43
2021/06/08 06:42:13;;;;;;;34.20;30.70;;;17.90;99.90;;;;;;5102303;28;20462;-43
2021/06/08 06:44:40;;;;;;;33.17;29.77;;;18.00;99.90;;;;;;5102497;28;20199;-42
2021/06/08 06:47:06;;;;;;;36.50;32.73;;;18.10;99.90;;;;;;5120383;28;20540;-43
2021/06/08 06:49:32;;;;;;;36.37;32.57;;;18.20;99.90;;;;;;5120425;28;20603;-43
2021/06/08 06:51:58;;;;;;;36.03;32.23;;;18.20;99.90;;;;;;5119742;28;20580;-43
2021/06/08 06:54:26;;;;;;;34.57;31.27;;;18.30;99.90;;;;;;5120158;28;20504;-43
2021/06/08 06:56:52;;;;;;;36.37;32.77;;;18.30;99.90;;;;;;5095058;28;20499;-43
2021/06/08 06:59:18;;;;;;;33.33;29.93;;;18.40;99.90;;;;;;5097038;28;20761;-41
2021/06/08 07:01:45;;;;;;;36.27;32.60;;;18.50;99.90;;;;;;5119548;28;20500;-43
2021/06/08 07:04:11;;;;;;;35.90;32.40;;;18.60;99.90;;;;;;5117726;28;20477;-42
2021/06/08 07:06:38;;;;;;;33.93;30.43;;;18.70;99.90;;;;;;5100604;28;20553;-43
2021/06/08 07:09:04;;;;;;;32.80;29.47;;;18.70;99.90;;;;;;5100582;28;20432;-41
2021/06/08 07:11:30;;;;;;;31.60;28.57;;;18.80;99.90;;;;;;5100563;28;20421;-41
2021/06/08 07:13:57;;;;;;;31.57;28.47;;;18.80;99.90;;;;;;5120059;28;20424;-43
2021/06/08 07:16:24;;;;;;;30.47;27.50;;;18.90;99.90;;;;;;5100843;28;20515;-43
2021/06/08 07:18:51;;;;;;;32.60;29.40;;;19.10;99.90;;;;;;5101388;28;20498;-43
2021/06/08 07:21:18;;;;;;;30.87;27.87;;;19.30;99.90;;;;;;5118291;28;20470;-43
2021/06/08 07:23:45;;;;;;;36.23;32.50;;;19.40;99.90;;;;;;5119062;28;20461;-43
2021/06/08 07:26:13;;;;;;;32.13;29.03;;;19.40;99.90;;;;;;5119715;28;20417;-43
2021/06/08 07:28:39;;;;;;;32.00;28.70;;;19.50;99.90;;;;;;5118518;28;20524;-42
2021/06/08 07:31:04;;;;;;;35.20;31.67;;;19.60;99.90;;;;;;5100121;28;20787;-43
2021/06/08 07:33:40;;;;;;;31.73;28.63;;;19.60;99.90;;;;;;5101236;28;20184;-43
2021/06/08 07:36:20;;;;;;;33.90;30.40;;;19.70;99.90;;;;;;5100642;28;20203;-42
2021/06/08 07:39:00;;;;;;;34.13;30.80;;;19.70;99.90;;;;;;5100732;28;20425;-43
2021/06/08 07:41:31;;;;;;;37.37;33.67;;;19.80;99.90;;;;;;5100055;28;20429;-43
2021/06/08 07:44:01;;;;;;;32.27;29.00;;;19.90;99.90;;;;;;5118047;28;20437;-43
2021/06/08 07:46:29;;;;;;;33.13;29.83;;;19.90;99.90;;;;;;5100968;28;20512;-43
2021/06/08 07:48:56;;;;;;;33.13;29.73;;;20.00;99.90;;;;;;5119074;28;20421;-43
2021/06/08 07:51:22;;;;;;;29.60;26.67;;;20.10;99.90;;;;;;5099453;28;20722;-43
2021/06/08 07:53:50;;;;;;;33.93;30.30;;;20.20;99.90;;;;;;5119565;28;20433;-43
2021/06/08 07:56:16;;;;;;;33.87;30.70;;;20.30;99.90;;;;;;5100146;28;20471;-43
2021/06/08 07:58:42;;;;;;;35.63;32.07;;;20.40;99.90;;;;;;5100038;28;20425;-43
2021/06/08 08:01:08;;;;;;;38.00;34.00;;;20.50;99.90;;;;;;5099242;28;20176;-43
2021/06/08 08:03:34;;;;;;;36.37;32.77;;;20.50;99.90;;;;;;5118783;28;20513;-43
2021/06/08 08:06:03;;;;;;;35.37;32.07;;;20.60;99.90;;;;;;5118387;28;20446;-43
2021/06/08 08:08:29;;;;;;;36.40;32.90;;;20.50;99.90;;;;;;5099629;28;20180;-43
2021/06/08 08:10:55;;;;;;;33.97;30.67;;;20.40;99.90;;;;;;5100767;28;20504;-43
2021/06/08 08:13:24;;;;;;;33.27;30.17;;;20.40;99.90;;;;;;5119205;28;20840;-43
2021/06/08 08:15:51;;;;;;;33.40;30.30;;;20.30;99.90;;;;;;5118374;28;20473;-43
2021/06/08 08:18:18;;;;;;;36.40;32.90;;;20.30;99.90;;;;;;5081946;28;20426;-42
2021/06/08 08:20:49;;;;;;;36.17;32.57;;;20.40;99.90;;;;;;5120046;27;20862;-42
2021/06/08 08:23:16;;;;;;;31.80;28.90;;;20.40;99.90;;;;;;5136361;27;20447;-43
2021/06/08 08:25:42;;;;;;;35.50;31.90;;;20.50;99.90;;;;;;5118738;27;20421;-43
2021/06/08 08:28:09;;;;;;;34.60;31.37;;;20.50;99.90;;;;;;5138467;27;20492;-42
2021/06/08 08:30:35;;;;;;;36.50;32.90;;;20.50;99.90;;;;;;5138819;27;20470;-43
2021/06/08 08:33:03;;;;;;;32.23;29.03;;;20.40;99.90;;;;;;5120188;27;20448;-43
2021/06/08 08:35:30;;;;;;;34.17;30.90;;;20.40;99.90;;;;;;5121545;27;20198;-43
2021/06/08 08:37:55;;;;;;;36.53;32.83;;;20.40;99.90;;;;;;5138567;27;20679;-41
2021/06/08 08:40:22;;;;;;;33.20;29.80;;;20.50;99.90;;;;;;5138262;27;20412;-43
2021/06/08 08:42:49;;;;;;;33.63;30.27;;;20.40;99.90;;;;;;5119634;27;20179;-44
2021/06/08 08:45:14;;;;;;;34.07;30.47;;;20.50;99.90;;;;;;5136849;27;20501;-43
2021/06/08 08:47:42;;;;;;;37.30;33.57;;;20.50;99.90;;;;;;5138157;27;20467;-43
2021/06/08 08:50:08;;;;;;;37.40;33.70;;;20.50;99.90;;;;;;5137989;27;20460;-42
2021/06/08 08:52:34;;;;;;;38.20;34.50;;;20.40;99.90;;;;;;5137403;27;20421;-43
2021/06/08 08:55:01;;;;;;;34.67;31.50;;;20.40;99.90;;;;;;5119800;27;20412;-44
2021/06/08 08:57:27;;;;;;;33.93;30.70;;;20.50;99.90;;;;;;5137734;27;20558;-43
2021/06/08 09:00:02;;;;;;;36.47;33.07;;;20.70;99.90;;;;;;5117657;27;20420;-43
2021/06/08 09:02:30;;;;;;;38.97;35.07;;;20.80;99.90;;;;;;5137207;27;20443;-44
2021/06/08 09:04:56;;;;;;;32.10;29.17;;;20.90;99.90;;;;;;5118833;27;20427;-44
2021/06/08 09:07:22;;;;;;;32.87;29.87;;;20.90;99.90;;;;;;5119514;27;20526;-44
2021/06/08 09:09:47;;;;;;;33.60;30.40;;;20.90;99.90;;;;;;5118743;27;20159;-42
2021/06/08 09:12:13;;;;;;;34.47;31.23;;;20.80;99.90;;;;;;5119435;27;20210;-43
2021/06/08 09:14:43;;;;;;;32.17;29.07;;;20.90;99.90;;;;;;5119358;27;20258;-43
2021/06/08 09:17:09;;;;;;;33.10;29.93;;;20.90;99.90;;;;;;5137136;27;20824;-42
2021/06/08 09:19:35;;;;;;;32.80;29.50;;;21.10;99.90;;;;;;5102707;27;20467;-52
2021/06/08 09:22:01;;;;;;;37.90;34.10;;;21.40;99.90;;;;;;5118146;27;20460;-44
2021/06/08 09:24:30;;;;;;;36.27;32.87;;;22.10;99.90;;;;;;5136446;27;20249;-43
2021/06/08 09:26:56;;;;;;;38.63;34.97;;;22.90;98.30;;;;;;5137017;27;20444;-43
2021/06/08 09:29:35;;;;;;;34.67;31.13;;;23.60;96.40;;;;;;5136275;27;20941;-44
2021/06/08 09:32:20;;;;;;;34.00;30.70;;;23.80;96.20;;;;;;5119329;27;20432;-43
2021/06/08 09:34:49;;;;;;;31.93;27.50;;;24.10;95.70;;;;;;5119988;27;20503;-43
2021/06/08 09:37:15;;;;;;;32.23;29.27;;;24.30;94.90;;;;;;5137292;27;20536;-43
2021/06/08 09:39:47;;;;;;;34.00;30.70;;;24.20;95.10;;;;;;5137112;27;20401;-44
2021/06/08 09:42:29;;;;;;;33.60;30.60;;;24.50;94.40;;;;;;5119346;27;20432;-44
2021/06/08 09:45:13;;;;;;;34.13;30.80;;;24.80;93.60;;;;;;5137686;27;20411;-44
2021/06/08 09:47:38;;;;;;;30.07;27.40;;;25.10;93.30;;;;;;5136502;27;20424;-44
2021/06/08 09:50:31;;;;;;;31.70;28.80;;;25.20;93.20;;;;;;5136533;27;20806;-44
2021/06/08 09:53:24;;;;;;;31.87;28.93;;;25.10;92.90;;;;;;5136717;28;20266;-44
2021/06/08 09:55:57;;;;;;;35.23;32.07;;;24.90;92.90;;;;;;5117509;28;20452;-44
2021/06/08 09:58:23;;;;;;;35.37;32.20;;;24.90;93.10;;;;;;5118151;28;20527;-44
2021/06/08 10:01:09;;;;;;;33.13;30.17;;;24.60;92.90;;;;;;5136343;28;20751;-43
2021/06/08 10:03:39;;;;;;;34.17;31.17;;;24.60;93.50;;;;;;5136785;28;20488;-44
2021/06/08 10:06:08;;;;;;;35.07;31.90;;;24.70;93.00;;;;;;5136526;28;20408;-44
2021/06/08 10:08:35;;;;;;;30.13;27.53;;;24.70;92.80;;;;;;5117049;28;20786;-43
2021/06/08 10:11:01;;;;;;;35.07;32.10;;;25.00;93.40;;;;;;5115660;28;20408;-44
2021/06/08 10:13:27;;;;;;;33.53;30.57;;;25.10;92.70;;;;;;5135955;27;20497;-44
2021/06/08 10:16:07;;;;;;;32.30;29.60;;;25.30;92.40;;;;;;5122126;27;20476;-44
2021/06/08 10:18:42;;;;;;;35.93;32.83;;;25.20;91.90;;;;;;5140052;27;20889;-44
2021/06/08 10:21:08;;;;;;;38.53;35.07;;;24.90;92.40;;;;;;5141014;27;20404;-44
2021/06/08 10:23:34;;;;;;;35.30;32.00;;;24.70;92.40;;;;;;5121701;27;20703;-44
2021/06/08 10:26:11;;;;;;;37.00;33.73;;;24.70;93.00;;;;;;5139264;27;20504;-44
2021/06/08 10:28:37;;;;;;;33.43;30.67;;;24.70;92.40;;;;;;5140487;27;20207;-44
2021/06/08 10:31:03;;;;;;;35.30;32.27;;;24.90;92.50;;;;;;5141320;27;20416;-45
2021/06/08 10:33:30;;;;;;;32.43;29.50;;;25.10;92.10;;;;;;5140292;27;20428;-44
2021/06/08 10:35:56;;;;;;;35.13;32.03;;;25.50;91.50;;;;;;5138342;27;20452;-44
2021/06/08 10:38:23;;;;;;;35.93;32.50;;;25.60;92.10;;;;;;5136533;27;20417;-44
2021/06/08 10:40:52;;;;;;;29.53;27.13;;;25.90;91.40;;;;;;5139640;27;20400;-46
2021/06/08 10:43:27;;;;;;;32.80;29.83;;;26.40;90.60;;;;;;5139743;27;20823;-44
2021/06/08 10:45:57;;;;;;;29.17;26.90;;;26.80;88.90;;;;;;5140620;27;20712;-44
2021/06/08 10:48:38;;;;;;;33.20;30.50;;;27.00;89.00;;;;;;5139254;27;20432;-44
2021/06/08 10:51:15;;;;;;;30.67;28.20;;;27.00;87.30;;;;;;5121061;27;20900;-44
2021/06/08 10:53:46;;;;;;;33.50;30.43;;;26.90;87.80;;;;;;5138678;27;20459;-44
2021/06/08 10:56:21;;;;;;;31.13;28.63;;;27.00;85.80;;;;;;5137567;27;20452;-44
2021/06/08 10:58:53;;;;;;;30.63;28.13;;;27.30;87.80;;;;;;5138126;27;20767;-44
2021/06/08 11:01:34;;;;;;;29.40;27.10;;;27.40;85.50;;;;;;5121097;27;20435;-44
2021/06/08 11:04:02;;;;;;;30.03;27.23;;;27.50;84.80;;;;;;5138224;27;20424;-44
2021/06/08 11:06:37;;;;;;;30.13;27.63;;;27.30;84.80;;;;;;5122685;27;20498;-44
2021/06/08 11:09:07;;;;;;;29.73;27.30;;;27.00;85.10;;;;;;5139633;27;20916;-44
2021/06/08 11:12:03;;;;;;;37.17;33.93;;;26.70;86.30;;;;;;5139411;27;20842;-44
2021/06/08 11:14:32;;;;;;;28.43;26.03;;;26.00;88.50;;;;;;5139887;27;20493;-44
2021/06/08 11:17:06;;;;;;;32.60;29.83;;;26.10;89.20;;;;;;5139284;27;20472;-44
2021/06/08 11:19:44;;;;;;;32.60;29.90;;;26.10;87.40;;;;;;5139699;27;20768;-44
2021/06/08 11:22:13;;;;;;;28.73;26.33;;;25.90;89.10;;;;;;5139499;27;20503;-44
2021/06/08 11:24:57;;;;;;;31.20;28.70;;;25.60;90.00;;;;;;5137956;27;20464;-44
2021/06/08 11:27:58;;;;;;;29.20;26.90;;;25.50;90.20;;;;;;5138728;27;20413;-44
2021/06/08 11:30:28;;;;;;;30.43;27.83;;;25.40;90.60;;;;;;5138815;27;20422;-44
2021/06/08 11:32:54;;;;;;;28.83;26.53;;;25.10;90.70;;;;;;5139093;27;20425;-44
2021/06/08 11:35:41;;;;;;;30.43;27.93;;;25.10;90.20;;;;;;5139622;27;20520;-44
2021/06/08 11:38:12;;;;;;;29.53;27.10;;;25.20;90.90;;;;;;5140194;27;20430;-44
2021/06/08 11:40:38;;;;;;;30.83;28.23;;;25.20;90.50;;;;;;5139534;27;20798;-43
2021/06/08 11:43:28;;;;;;;29.20;26.70;;;24.90;90.80;;;;;;5139565;27;20743;-44
2021/06/08 11:46:12;;;;;;;29.97;27.47;;;24.90;91.10;;;;;;5138083;27;20421;-44
2021/06/08 11:48:46;;;;;;;31.50;29.00;;;24.70;91.60;;;;;;5137248;27;20542;-43
2021/06/08 11:51:15;;;;;;;29.63;27.20;;;24.90;91.40;;;;;;5138294;27;20401;-44
2021/06/08 11:54:13;;;;;;;32.97;30.07;;;25.00;91.00;;;;;;5137599;27;20532;-44
2021/06/08 11:57:00;;;;;;;32.00;29.40;;;25.10;91.70;;;;;;5138500;27;20961;-44
2021/06/08 11:59:31;;;;;;;29.40;26.83;;;25.10;90.90;;;;;;5136425;27;20428;-44
2021/06/08 12:02:06;;;;;;;26.63;24.43;;;25.10;91.50;;;;;;5136228;27;20840;-44
2021/06/08 12:05:10;;;;;;;32.97;30.17;;;25.30;91.10;;;;;;5138754;27;20805;-44
2021/06/08 12:07:47;;;;;;;28.80;26.53;;;25.40;90.90;;;;;;5138037;27;20404;-44
2021/06/08 12:10:26;;;;;;;31.43;28.97;;;25.50;90.90;;;;;;5137568;27;20397;-44
2021/06/08 12:12:52;;;;;;;31.53;28.93;;;25.80;90.40;;;;;;5135968;27;20508;-44
2021/06/08 12:15:23;;;;;;;29.17;26.70;;;26.00;90.10;;;;;;5137002;27;20517;-44
2021/06/08 12:18:10;;;;;;;34.67;31.87;;;26.20;90.40;;;;;;5135938;27;20183;-43
2021/06/08 12:20:38;;;;;;;32.90;30.30;;;26.40;89.60;;;;;;5137097;27;20824;-44
2021/06/08 12:23:04;;;;;;;28.80;26.50;;;26.10;88.70;;;;;;5119188;27;20493;-44
2021/06/08 12:25:30;;;;;;;29.53;27.23;;;25.90;88.90;;;;;;5137242;27;20496;-44
2021/06/08 12:27:56;;;;;;;32.03;29.33;;;26.00;89.20;;;;;;5120094;27;20432;-44
2021/06/08 12:30:28;;;;;;;30.70;28.10;;;26.10;89.30;;;;;;5139139;27;20413;-43
2021/06/08 12:33:02;;;;;;;30.57;28.17;;;26.50;88.30;;;;;;5138346;27;20460;-44
2021/06/08 12:35:36;;;;;;;30.33;27.83;;;27.70;87.50;;;;;;5138933;27;20456;-44
2021/06/08 12:38:10;;;;;;;29.57;27.30;;;29.50;83.50;;;;;;5137053;27;20432;-44
2021/06/08 12:40:36;;;;;;;30.73;28.33;;;30.90;78.90;;;;;;5137850;27;20376;-44
2021/06/08 12:43:03;;;;;;;26.13;23.97;;;31.70;72.50;;;;;;5138324;27;20399;-44